Time;durP1;ratioP1;P1;durP2;ratioP2;P2;SDS_P1;SDS_P2;PMS_P1;PMS_P2;Temp;Humidity;BMP_temperature;BMP_pressure;BME280_temperature;BME280_humidity;BME280_pressure;Samples;Min_cycle;Max_cycle;Signal;HPM_P1;HPM_P2
2023/02/10 00:00:00;;;;;;;41.63;16.20;;;-4.10;99.90;;;;;;5015054;28;20370;-72
2023/02/10 00:02:28;;;;;;;36.97;17.40;;;-4.00;99.90;;;;;;5015131;28;20200;-71
2023/02/10 00:04:53;;;;;;;29.27;15.17;;;-4.10;99.90;;;;;;5014501;28;20186;-71
2023/02/10 00:07:19;;;;;;;27.57;16.10;;;-4.10;99.90;;;;;;5014969;28;20426;-73
2023/02/10 00:09:46;;;;;;;32.97;16.30;;;-4.10;99.90;;;;;;5015092;28;20183;-72
2023/02/10 00:12:12;;;;;;;35.07;17.90;;;-4.10;99.90;;;;;;5014245;28;20217;-73
2023/02/10 00:14:38;;;;;;;34.30;17.30;;;-4.20;99.90;;;;;;5014760;28;20426;-73
2023/02/10 00:17:04;;;;;;;37.63;18.20;;;-4.20;99.90;;;;;;5014565;28;20785;-71
2023/02/10 00:19:33;;;;;;;39.27;18.00;;;-4.20;99.90;;;;;;5014752;28;20422;-71
2023/02/10 00:22:00;;;;;;;35.10;16.27;;;-4.20;99.90;;;;;;5014423;28;20416;-72
2023/02/10 00:24:27;;;;;;;39.90;18.43;;;-4.20;99.90;;;;;;5014750;28;20422;-73
2023/02/10 00:26:53;;;;;;;38.30;17.90;;;-4.20;99.90;;;;;;5014663;28;20832;-71
2023/02/10 00:29:19;;;;;;;32.27;16.97;;;-4.20;99.90;;;;;;5014653;28;20457;-72
2023/02/10 00:31:45;;;;;;;37.27;18.43;;;-4.20;99.90;;;;;;5013925;28;20495;-72
2023/02/10 00:34:13;;;;;;;43.43;17.63;;;-4.20;99.90;;;;;;5014107;28;20552;-72
2023/02/10 00:36:39;;;;;;;35.97;16.80;;;-4.30;99.90;;;;;;5014145;28;20417;-73
2023/02/10 00:39:04;;;;;;;35.00;17.30;;;-4.30;99.90;;;;;;5014546;28;20468;-72
2023/02/10 00:41:30;;;;;;;34.27;17.57;;;-4.30;99.90;;;;;;5014149;28;20937;-72
2023/02/10 00:43:55;;;;;;;36.50;18.90;;;-4.40;99.90;;;;;;5014067;28;20193;-71
2023/02/10 00:46:22;;;;;;;39.50;19.10;;;-4.40;99.90;;;;;;5013905;28;20179;-71
2023/02/10 00:48:48;;;;;;;35.30;16.30;;;-4.40;99.90;;;;;;5013295;28;20182;-72
2023/02/10 00:51:14;;;;;;;39.73;18.53;;;-4.40;99.90;;;;;;5013026;28;20553;-71
2023/02/10 00:53:40;;;;;;;34.67;18.20;;;-4.40;99.90;;;;;;5013056;28;20414;-71
2023/02/10 00:56:06;;;;;;;38.73;18.17;;;-4.40;99.90;;;;;;5013695;28;20427;-73
2023/02/10 00:58:32;;;;;;;41.30;18.83;;;-4.40;99.90;;;;;;5014343;28;20498;-72
2023/02/10 01:00:57;;;;;;;41.77;16.83;;;-4.40;99.90;;;;;;5013910;28;21001;-72
2023/02/10 01:03:23;;;;;;;42.80;18.10;;;-4.50;99.90;;;;;;5014133;28;20266;-71
2023/02/10 01:05:49;;;;;;;40.27;17.43;;;-4.50;99.90;;;;;;5013961;28;20191;-72
2023/02/10 01:08:15;;;;;;;38.77;18.00;;;-4.50;99.90;;;;;;5013924;28;20388;-72
2023/02/10 01:10:41;;;;;;;37.77;17.83;;;-4.50;99.90;;;;;;5014081;28;20183;-72
2023/02/10 01:13:08;;;;;;;31.83;18.10;;;-4.50;99.90;;;;;;5013709;28;20437;-73
2023/02/10 01:15:34;;;;;;;34.10;17.33;;;-4.50;99.90;;;;;;5013708;28;20648;-72
2023/02/10 01:18:00;;;;;;;38.60;17.90;;;-4.50;99.90;;;;;;5013548;28;20537;-71
2023/02/10 01:20:26;;;;;;;39.70;17.90;;;-4.50;99.90;;;;;;5013720;28;20559;-72
2023/02/10 01:22:52;;;;;;;36.97;18.63;;;-4.50;99.90;;;;;;5013038;28;20475;-70
2023/02/10 01:25:17;;;;;;;39.07;17.30;;;-4.60;99.90;;;;;;5013387;28;20424;-73
2023/02/10 01:27:43;;;;;;;34.27;17.50;;;-4.60;99.90;;;;;;5013758;28;20189;-71
2023/02/10 01:30:09;;;;;;;36.00;16.63;;;-4.60;99.90;;;;;;5013440;28;20195;-71
2023/02/10 01:32:35;;;;;;;36.63;18.60;;;-4.60;99.90;;;;;;5013356;28;20226;-71
2023/02/10 01:35:00;;;;;;;40.70;18.50;;;-4.60;99.90;;;;;;5013150;28;20448;-71
2023/02/10 01:37:26;;;;;;;37.53;17.83;;;-4.70;99.90;;;;;;5013454;28;20178;-73
2023/02/10 01:39:52;;;;;;;43.50;18.60;;;-4.70;99.90;;;;;;5013319;28;20190;-71
2023/02/10 01:42:17;;;;;;;36.53;19.80;;;-4.70;99.90;;;;;;5013226;28;20222;-71
2023/02/10 01:44:42;;;;;;;33.90;17.10;;;-4.60;99.90;;;;;;5013415;28;20262;-72
2023/02/10 01:47:09;;;;;;;37.40;17.60;;;-4.60;99.90;;;;;;5013264;28;20187;-72
2023/02/10 01:49:39;;;;;;;35.30;18.23;;;-4.70;99.90;;;;;;5013250;28;20556;-71
2023/02/10 01:52:17;;;;;;;36.53;17.03;;;-4.70;99.90;;;;;;5012776;28;20465;-71
2023/02/10 01:54:49;;;;;;;37.43;16.60;;;-4.70;99.90;;;;;;5013216;28;20512;-71
2023/02/10 01:57:15;;;;;;;38.13;17.53;;;-4.80;99.90;;;;;;5012999;28;20489;-71
2023/02/10 01:59:42;;;;;;;35.80;18.30;;;-4.80;99.90;;;;;;5013087;28;20392;-72
2023/02/10 03:32:46;;;;;;;34.37;17.70;;;-5.10;99.90;;;;;;4998122;22;20477;-70
2023/02/10 03:35:11;;;;;;;31.13;17.93;;;-5.10;99.90;;;;;;4989050;28;20935;-71
2023/02/10 03:37:37;;;;;;;40.23;16.10;;;-5.10;99.90;;;;;;4991096;28;20405;-70
2023/02/10 03:40:03;;;;;;;33.70;16.80;;;-5.10;99.90;;;;;;4990664;28;20510;-70
2023/02/10 03:42:28;;;;;;;37.17;17.77;;;-5.10;99.90;;;;;;4991420;28;20211;-71
2023/02/10 03:44:54;;;;;;;41.77;18.83;;;-5.20;99.90;;;;;;4991184;28;20200;-72
2023/02/10 03:47:19;;;;;;;32.17;16.20;;;-5.20;99.90;;;;;;4991046;28;20250;-70
2023/02/10 03:49:45;;;;;;;37.17;17.20;;;-5.20;99.90;;;;;;4991175;28;20652;-68
2023/02/10 03:52:10;;;;;;;49.93;19.00;;;-5.20;99.90;;;;;;4990464;28;20215;-70
2023/02/10 03:54:35;;;;;;;37.67;17.80;;;-5.20;99.90;;;;;;4991282;28;20202;-70
2023/02/10 03:57:01;;;;;;;44.03;19.77;;;-5.30;99.90;;;;;;4990620;28;20219;-70
2023/02/10 03:59:26;;;;;;;48.53;19.87;;;-5.30;99.90;;;;;;4991254;28;20197;-71
2023/02/10 04:01:52;;;;;;;39.40;18.87;;;-5.30;99.90;;;;;;4992644;28;20230;-71
2023/02/10 04:04:17;;;;;;;38.43;19.00;;;-5.30;99.90;;;;;;4990594;28;20189;-71
2023/02/10 04:06:43;;;;;;;39.80;18.47;;;-5.30;99.90;;;;;;4990118;28;20189;-71
2023/02/10 04:09:08;;;;;;;41.23;17.60;;;-5.20;99.90;;;;;;4991119;28;20530;-71
2023/02/10 04:11:34;;;;;;;37.27;19.43;;;-5.30;99.90;;;;;;4991156;28;20211;-71
2023/02/10 04:13:59;;;;;;;34.67;18.83;;;-5.20;99.90;;;;;;4991511;28;20195;-71
2023/02/10 04:16:27;;;;;;;34.57;17.40;;;-5.30;99.90;;;;;;4990710;28;20184;-72
2023/02/10 04:18:53;;;;;;;32.90;16.80;;;-5.30;99.90;;;;;;4991069;28;20190;-71
2023/02/10 04:21:19;;;;;;;32.30;15.70;;;-5.30;99.90;;;;;;4990819;28;20466;-72
2023/02/10 04:23:45;;;;;;;40.23;18.57;;;-5.30;99.90;;;;;;4990831;28;20417;-71
2023/02/10 04:26:11;;;;;;;44.40;19.47;;;-5.40;99.90;;;;;;4990684;28;20439;-71
2023/02/10 04:28:36;;;;;;;38.63;16.90;;;-5.40;99.90;;;;;;4991640;28;20228;-72
2023/02/10 04:31:02;;;;;;;37.73;16.67;;;-5.40;99.90;;;;;;4993898;28;20699;-69
2023/02/10 04:33:28;;;;;;;41.60;18.13;;;-5.40;99.90;;;;;;5001042;28;20215;-71
2023/02/10 04:36:13;;;;;;;40.73;17.37;;;-5.40;99.90;;;;;;4994105;28;20524;-71
2023/02/10 04:38:39;;;;;;;36.93;19.00;;;-5.40;99.90;;;;;;4988324;28;20191;-71
2023/02/10 04:41:05;;;;;;;33.00;16.80;;;-5.40;99.90;;;;;;4993897;28;20446;-71
2023/02/10 04:43:31;;;;;;;35.03;17.33;;;-5.50;99.90;;;;;;4994321;28;20671;-71
2023/02/10 04:45:57;;;;;;;35.73;18.67;;;-5.40;99.90;;;;;;4994134;28;20276;-72
2023/02/10 04:48:22;;;;;;;44.23;18.70;;;-5.50;99.90;;;;;;4993888;28;20477;-71
2023/02/10 04:50:48;;;;;;;38.43;18.97;;;-5.50;99.90;;;;;;4993992;28;20577;-71
2023/02/10 04:53:14;;;;;;;38.83;19.50;;;-5.50;99.90;;;;;;4993914;28;20684;-71
2023/02/10 04:55:39;;;;;;;40.50;19.33;;;-5.50;99.90;;;;;;4994091;28;20193;-71
2023/02/10 04:58:06;;;;;;;37.70;18.70;;;-5.50;99.90;;;;;;4993955;28;20191;-71
2023/02/10 05:00:32;;;;;;;41.30;20.57;;;-5.50;99.90;;;;;;4993914;28;20195;-71
2023/02/10 05:02:57;;;;;;;42.27;18.80;;;-5.60;99.90;;;;;;4994116;28;20945;-71
2023/02/10 05:05:25;;;;;;;35.20;17.10;;;-5.60;99.90;;;;;;4993312;28;20206;-70
2023/02/10 05:07:51;;;;;;;40.30;17.70;;;-5.60;99.90;;;;;;4993882;28;20187;-71
2023/02/10 05:10:16;;;;;;;47.47;21.70;;;-5.60;99.90;;;;;;4993654;28;20444;-71
2023/02/10 05:12:42;;;;;;;38.00;18.50;;;-5.60;99.90;;;;;;4993821;28;20553;-71
2023/02/10 05:15:08;;;;;;;36.60;19.10;;;-5.60;99.90;;;;;;4993534;28;20660;-71
2023/02/10 05:17:34;;;;;;;41.40;19.30;;;-5.60;99.90;;;;;;4993542;28;20213;-70
2023/02/10 05:19:59;;;;;;;41.23;20.07;;;-5.60;99.90;;;;;;4993804;28;20412;-70
2023/02/10 05:22:29;;;;;;;37.77;19.60;;;-5.60;99.90;;;;;;4993087;28;20457;-70
2023/02/10 05:24:58;;;;;;;35.93;17.70;;;-5.60;99.90;;;;;;4992422;28;20289;-71
2023/02/10 05:27:24;;;;;;;33.67;19.13;;;-5.60;99.90;;;;;;4993092;28;20525;-71
2023/02/10 05:29:50;;;;;;;41.30;18.87;;;-5.60;99.90;;;;;;4993655;28;20437;-71
2023/02/10 05:32:15;;;;;;;42.97;19.17;;;-5.70;99.90;;;;;;4992580;28;20978;-71
2023/02/10 05:34:41;;;;;;;42.27;19.27;;;-5.70;99.90;;;;;;4993240;28;20270;-71
2023/02/10 05:37:06;;;;;;;42.70;19.00;;;-5.70;99.90;;;;;;4992930;28;20677;-70
2023/02/10 05:39:32;;;;;;;38.13;18.37;;;-5.70;99.90;;;;;;4993025;28;20182;-71
2023/02/10 05:41:58;;;;;;;38.77;17.87;;;-5.70;99.90;;;;;;4993226;28;20214;-71
2023/02/10 05:44:26;;;;;;;37.27;20.20;;;-5.70;99.90;;;;;;4992852;28;20193;-71
2023/02/10 05:46:52;;;;;;;38.47;19.63;;;-5.70;99.90;;;;;;4992976;28;20449;-72
2023/02/10 05:49:18;;;;;;;42.80;20.63;;;-5.70;99.90;;;;;;4992816;28;20417;-72
2023/02/10 05:51:44;;;;;;;42.47;19.10;;;-5.70;99.90;;;;;;4993241;28;20479;-72
2023/02/10 05:54:10;;;;;;;43.33;19.20;;;-5.80;99.90;;;;;;4991347;28;20479;-71
2023/02/10 05:56:36;;;;;;;47.10;19.90;;;-5.70;99.90;;;;;;4992705;28;20429;-72
2023/02/10 05:59:01;;;;;;;37.63;18.80;;;-5.80;99.90;;;;;;4991800;28;20435;-70
2023/02/10 06:01:27;;;;;;;39.63;18.90;;;-5.80;99.90;;;;;;4992452;28;20505;-71
2023/02/10 06:03:53;;;;;;;40.73;18.30;;;-5.80;99.90;;;;;;4993066;28;20189;-70
2023/02/10 06:06:19;;;;;;;36.70;18.97;;;-5.80;99.90;;;;;;4992514;28;20207;-71
2023/02/10 06:08:44;;;;;;;45.63;20.07;;;-5.90;99.90;;;;;;4993038;28;20822;-71
2023/02/10 06:11:10;;;;;;;40.23;18.30;;;-5.80;99.90;;;;;;4992226;28;20681;-70
2023/02/10 06:13:37;;;;;;;45.77;19.70;;;-5.80;99.90;;;;;;4993020;28;20199;-71
2023/02/10 06:16:03;;;;;;;36.03;18.10;;;-5.70;99.90;;;;;;4992715;28;20684;-72
2023/02/10 06:18:29;;;;;;;44.50;19.40;;;-5.70;99.90;;;;;;4992599;28;20402;-71
2023/02/10 06:20:56;;;;;;;35.50;17.20;;;-5.70;99.90;;;;;;4992773;28;20276;-71
2023/02/10 06:23:22;;;;;;;42.80;18.43;;;-5.80;99.90;;;;;;4992516;28;20560;-71
2023/02/10 06:25:48;;;;;;;40.77;19.30;;;-5.80;99.90;;;;;;4992547;28;20407;-70
2023/02/10 06:28:14;;;;;;;37.53;17.20;;;-5.80;99.90;;;;;;4992298;28;20476;-71
2023/02/10 06:30:41;;;;;;;51.17;20.37;;;-5.80;99.90;;;;;;4992448;28;20222;-70
2023/02/10 06:33:06;;;;;;;39.93;17.63;;;-5.80;99.90;;;;;;4992296;28;20222;-69
2023/02/10 06:35:32;;;;;;;35.63;17.53;;;-5.80;99.90;;;;;;4966074;28;20437;-70
2023/02/10 06:37:58;;;;;;;44.70;19.57;;;-5.80;99.90;;;;;;4991096;28;20197;-70
2023/02/10 06:40:23;;;;;;;48.13;18.67;;;-5.80;99.90;;;;;;4991544;28;20676;-69
2023/02/10 06:42:50;;;;;;;46.30;21.57;;;-5.80;99.90;;;;;;4992232;28;20423;-70
2023/02/10 06:45:15;;;;;;;43.63;19.87;;;-5.80;99.90;;;;;;4991550;28;20567;-68
2023/02/10 06:47:41;;;;;;;49.53;19.03;;;-5.70;99.90;;;;;;4991190;28;20439;-69
2023/02/10 06:50:06;;;;;;;40.43;19.47;;;-5.60;99.90;;;;;;4985149;28;20198;-70
2023/02/10 06:52:34;;;;;;;41.83;20.43;;;-5.60;99.90;;;;;;4989544;28;20212;-70
2023/02/10 06:55:00;;;;;;;44.23;20.27;;;-5.50;99.90;;;;;;4990524;28;20537;-70
2023/02/10 06:57:26;;;;;;;40.80;19.30;;;-5.50;99.90;;;;;;4990756;28;20491;-71
2023/02/10 06:59:52;;;;;;;45.90;19.43;;;-5.40;99.90;;;;;;4991754;28;20248;-70
2023/02/10 07:02:18;;;;;;;48.37;21.57;;;-5.30;99.90;;;;;;4990249;28;20303;-71
2023/02/10 07:04:44;;;;;;;47.33;21.70;;;-5.30;99.90;;;;;;4991968;28;20438;-70
2023/02/10 07:07:09;;;;;;;47.43;24.50;;;-5.30;99.90;;;;;;4991709;28;20957;-71
2023/02/10 07:09:35;;;;;;;41.63;20.17;;;-5.30;99.90;;;;;;4991493;28;20275;-69
2023/02/10 07:12:01;;;;;;;38.13;20.10;;;-5.20;99.90;;;;;;4991407;28;20215;-70
2023/02/10 07:14:26;;;;;;;44.10;19.90;;;-5.10;99.90;;;;;;4991221;28;20647;-70
2023/02/10 07:16:52;;;;;;;53.63;22.57;;;-5.10;99.90;;;;;;4991623;28;20202;-71
2023/02/10 07:19:17;;;;;;;47.87;22.60;;;-5.00;99.90;;;;;;4991520;28;20381;-70
2023/02/10 07:21:43;;;;;;;43.00;21.67;;;-4.90;99.90;;;;;;4991740;28;20215;-70
2023/02/10 07:24:09;;;;;;;44.33;21.63;;;-4.80;99.90;;;;;;4991982;28;20192;-70
2023/02/10 07:26:34;;;;;;;41.00;21.00;;;-4.70;99.90;;;;;;4991068;28;20203;-71
2023/02/10 07:29:00;;;;;;;44.10;21.60;;;-4.60;99.90;;;;;;4992033;28;20434;-69
2023/02/10 07:31:26;;;;;;;39.83;18.37;;;-4.50;99.90;;;;;;4990870;28;20238;-70
2023/02/10 07:33:51;;;;;;;45.50;19.73;;;-4.30;99.90;;;;;;4991728;28;20434;-68
2023/02/10 07:36:17;;;;;;;37.37;19.77;;;-3.50;99.90;;;;;;4991126;28;20667;-70
2023/02/10 07:38:42;;;;;;;35.87;19.10;;;-2.30;99.90;;;;;;4992026;28;20582;-72
2023/02/10 07:41:08;;;;;;;32.83;18.13;;;-1.40;99.90;;;;;;4992092;28;20572;-71
2023/02/10 07:43:34;;;;;;;39.70;21.10;;;-0.20;99.90;;;;;;4991188;28;20693;-72
2023/02/10 07:46:00;;;;;;;36.03;20.13;;;0.80;99.90;;;;;;4991471;28;20199;-71
2023/02/10 07:48:26;;;;;;;35.70;18.43;;;1.70;99.90;;;;;;4991372;28;20438;-71
2023/02/10 07:50:51;;;;;;;36.50;21.70;;;2.20;99.90;;;;;;4991280;28;20708;-71
2023/02/10 07:53:20;;;;;;;45.20;21.87;;;3.00;99.90;;;;;;4990851;28;20468;-71
2023/02/10 07:55:46;;;;;;;38.63;21.97;;;3.90;99.90;;;;;;4991048;28;20190;-71
2023/02/10 07:58:12;;;;;;;41.27;22.53;;;4.10;99.90;;;;;;4991314;28;20478;-71
2023/02/10 08:00:37;;;;;;;46.40;22.87;;;5.00;99.90;;;;;;4989574;28;20953;-71
2023/02/10 08:03:03;;;;;;;37.03;21.53;;;5.30;99.90;;;;;;4992294;28;20544;-71
2023/02/10 08:05:29;;;;;;;37.20;22.57;;;5.80;99.90;;;;;;4994585;28;20248;-71
2023/02/10 08:07:55;;;;;;;40.77;25.50;;;6.20;99.90;;;;;;4993889;28;20551;-71
2023/02/10 08:10:21;;;;;;;41.33;23.70;;;6.40;99.90;;;;;;4994716;28;20226;-71
2023/02/10 08:12:47;;;;;;;42.63;25.37;;;6.80;99.90;;;;;;4994832;28;20466;-71
2023/02/10 08:15:16;;;;;;;40.43;26.00;;;7.40;99.90;;;;;;4994994;28;20430;-71
2023/02/10 08:17:42;;;;;;;38.23;24.10;;;7.00;99.90;;;;;;4994295;28;20210;-70
2023/02/10 08:20:08;;;;;;;43.83;26.13;;;6.40;99.90;;;;;;4989453;28;20422;-70
2023/02/10 08:22:34;;;;;;;40.07;24.83;;;6.40;99.90;;;;;;4993150;28;20463;-71
2023/02/10 08:25:00;;;;;;;41.77;25.33;;;6.40;99.90;;;;;;4991187;28;20929;-71
2023/02/10 08:27:25;;;;;;;43.60;25.23;;;6.60;99.90;;;;;;4990278;28;20198;-71
2023/02/10 08:29:51;;;;;;;37.57;25.80;;;6.00;99.90;;;;;;4990536;28;20197;-71
2023/02/10 08:32:18;;;;;;;42.47;26.03;;;5.70;99.90;;;;;;4991802;28;20223;-70
2023/02/10 08:34:46;;;;;;;43.27;26.37;;;5.20;99.90;;;;;;4994313;28;20198;-71
2023/02/10 08:37:12;;;;;;;41.00;23.90;;;4.80;99.90;;;;;;4992491;28;20459;-71
2023/02/10 08:39:37;;;;;;;50.20;25.37;;;4.70;99.90;;;;;;4994054;28;20461;-70
2023/02/10 08:42:03;;;;;;;41.70;24.87;;;4.50;99.90;;;;;;4987037;28;20211;-71
2023/02/10 08:44:28;;;;;;;45.67;26.07;;;4.10;99.90;;;;;;4992106;28;20226;-71
2023/02/10 08:46:54;;;;;;;39.47;23.27;;;4.00;99.90;;;;;;4992763;28;20195;-70
2023/02/10 08:49:20;;;;;;;43.90;22.80;;;4.00;99.90;;;;;;4993918;28;20195;-71
2023/02/10 08:51:45;;;;;;;50.73;25.03;;;4.10;99.90;;;;;;4993980;28;20264;-72
2023/02/10 08:54:11;;;;;;;43.53;25.60;;;4.10;99.90;;;;;;4994238;28;20198;-71
2023/02/10 08:56:36;;;;;;;50.73;24.77;;;3.70;99.90;;;;;;4993837;28;20190;-71
2023/02/10 08:59:02;;;;;;;45.10;24.37;;;3.70;99.90;;;;;;4994154;28;20186;-71
2023/02/10 09:01:28;;;;;;;47.93;24.47;;;3.70;99.90;;;;;;4993674;28;20254;-70
2023/02/10 09:03:55;;;;;;;44.33;25.27;;;3.80;99.90;;;;;;4994334;28;20236;-71
2023/02/10 09:06:24;;;;;;;48.30;24.50;;;3.50;99.90;;;;;;4993076;28;20429;-70
2023/02/10 09:08:52;;;;;;;38.47;24.70;;;3.70;99.90;;;;;;4992864;28;20444;-71
2023/02/10 09:11:18;;;;;;;50.80;24.50;;;3.60;99.90;;;;;;4993569;28;20568;-71
2023/02/10 09:13:44;;;;;;;45.20;24.77;;;3.80;99.90;;;;;;4993720;28;20436;-70
2023/02/10 09:16:10;;;;;;;41.93;24.50;;;3.90;99.90;;;;;;4993394;28;20460;-71
2023/02/10 09:18:35;;;;;;;44.97;25.77;;;4.10;99.90;;;;;;4993765;28;20552;-71
2023/02/10 09:21:01;;;;;;;47.37;25.30;;;4.40;99.90;;;;;;4993838;28;20744;-72
2023/02/10 09:23:28;;;;;;;50.10;25.70;;;4.80;99.90;;;;;;4993593;28;20202;-71
2023/02/10 09:25:55;;;;;;;41.80;23.57;;;5.10;99.90;;;;;;4994006;28;20214;-71
2023/02/10 09:28:21;;;;;;;37.60;23.10;;;5.20;99.90;;;;;;4993732;28;20433;-71
2023/02/10 09:30:47;;;;;;;42.40;24.30;;;5.60;99.90;;;;;;4993715;28;20449;-70
2023/02/10 09:33:12;;;;;;;53.30;25.83;;;6.00;99.90;;;;;;4992385;28;20208;-71
2023/02/10 09:35:38;;;;;;;39.47;23.00;;;6.10;99.90;;;;;;4992952;28;20822;-71
2023/02/10 09:38:03;;;;;;;39.33;23.83;;;6.40;99.90;;;;;;4993848;28;20252;-71
2023/02/10 09:40:32;;;;;;;40.90;24.20;;;6.80;99.90;;;;;;4993238;28;20193;-71
2023/02/10 09:43:25;;;;;;;44.00;26.33;;;7.00;99.90;;;;;;4994160;28;20201;-71
2023/02/10 09:46:09;;;;;;;41.93;24.20;;;6.90;99.90;;;;;;4986139;28;20428;-71
2023/02/10 09:48:39;;;;;;;43.43;25.10;;;6.80;99.90;;;;;;4993386;28;20428;-71
2023/02/10 09:51:32;;;;;;;42.40;25.70;;;7.00;99.90;;;;;;4993265;28;20512;-71
2023/02/10 09:53:58;;;;;;;48.43;26.23;;;7.00;99.90;;;;;;4987422;28;20413;-72
2023/02/10 09:56:24;;;;;;;47.17;25.20;;;7.10;99.90;;;;;;4992936;28;20450;-71
2023/02/10 09:58:56;;;;;;;48.53;26.47;;;7.20;99.90;;;;;;4993468;28;20429;-71
2023/02/10 10:01:35;;;;;;;41.17;25.80;;;7.30;99.90;;;;;;4992884;28;20445;-70
2023/02/10 10:04:09;;;;;;;37.20;24.60;;;7.50;99.90;;;;;;4987724;28;20523;-72
2023/02/10 10:06:39;;;;;;;39.43;23.70;;;7.70;99.90;;;;;;4992644;28;20429;-72
2023/02/10 10:09:17;;;;;;;46.23;26.80;;;7.90;99.90;;;;;;4993104;28;20522;-72
2023/02/10 10:11:53;;;;;;;43.23;24.63;;;8.00;99.90;;;;;;4992548;28;20953;-71
2023/02/10 10:14:53;;;;;;;44.23;26.40;;;8.00;99.90;;;;;;4993151;28;20431;-72
2023/02/10 10:17:28;;;;;;;41.80;26.60;;;8.20;99.90;;;;;;4988702;28;20430;-72
2023/02/10 10:19:53;;;;;;;40.87;25.67;;;8.30;99.90;;;;;;4993073;28;20470;-73
2023/02/10 10:22:25;;;;;;;46.83;26.50;;;8.50;99.90;;;;;;4992899;28;20851;-72
2023/02/10 10:25:13;;;;;;;40.10;25.30;;;8.80;99.90;;;;;;4983777;28;20223;-72
2023/02/10 10:28:05;;;;;;;41.03;25.40;;;8.90;99.90;;;;;;4992109;28;20459;-71
2023/02/10 10:30:40;;;;;;;39.27;25.97;;;8.80;99.90;;;;;;4992453;28;20485;-71
2023/02/10 10:33:25;;;;;;;45.83;26.70;;;8.90;99.90;;;;;;4991847;28;20468;-71
2023/02/10 10:35:51;;;;;;;46.13;28.37;;;8.70;99.90;;;;;;4984464;28;20424;-72
2023/02/10 10:38:23;;;;;;;40.87;25.53;;;9.10;99.90;;;;;;4992408;28;20432;-71
2023/02/10 10:40:54;;;;;;;41.63;26.90;;;9.20;99.90;;;;;;4992000;28;20465;-72
2023/02/10 10:43:27;;;;;;;39.33;24.97;;;9.10;99.90;;;;;;4991252;28;20443;-72
2023/02/10 10:45:59;;;;;;;41.13;25.77;;;9.30;99.90;;;;;;4983032;28;20445;-70
2023/02/10 10:48:27;;;;;;;35.43;23.80;;;9.50;99.90;;;;;;4992189;28;20442;-71
2023/02/10 10:50:57;;;;;;;41.30;24.87;;;9.50;99.90;;;;;;4990943;28;20461;-72
2023/02/10 10:53:42;;;;;;;43.57;25.83;;;9.60;99.90;;;;;;4992391;28;20560;-72
2023/02/10 10:56:21;;;;;;;48.63;27.33;;;9.60;99.90;;;;;;4986303;28;20422;-72
2023/02/10 10:58:47;;;;;;;41.80;25.40;;;9.50;99.90;;;;;;4992276;28;20490;-73
2023/02/10 11:01:14;;;;;;;41.27;25.90;;;9.30;99.90;;;;;;4992011;28;20443;-72
2023/02/10 11:03:40;;;;;;;42.23;26.67;;;9.40;99.90;;;;;;4991730;28;20520;-69
2023/02/10 11:06:09;;;;;;;43.83;24.73;;;9.70;99.90;;;;;;4992078;28;21058;-72
2023/02/10 11:08:43;;;;;;;41.20;27.13;;;9.40;99.90;;;;;;4991629;28;20195;-72
2023/02/10 11:11:14;;;;;;;41.87;26.70;;;9.50;99.90;;;;;;4992128;28;20444;-73
2023/02/10 11:13:50;;;;;;;39.97;23.90;;;9.50;99.90;;;;;;4991979;28;20520;-70
2023/02/10 11:16:16;;;;;;;44.50;25.17;;;9.90;99.90;;;;;;4992623;28;20434;-72
2023/02/10 11:18:59;;;;;;;42.57;25.50;;;10.10;99.90;;;;;;4967828;28;20520;-72
2023/02/10 11:21:44;;;;;;;37.03;25.20;;;9.90;99.90;;;;;;4993194;28;20492;-72
2023/02/10 11:24:23;;;;;;;43.23;26.30;;;9.80;99.90;;;;;;4991611;28;20467;-74
2023/02/10 11:27:00;;;;;;;41.50;25.43;;;9.70;99.90;;;;;;4992314;28;20467;-73
2023/02/10 11:29:29;;;;;;;38.30;23.77;;;9.70;99.90;;;;;;4993115;28;20805;-73
2023/02/10 11:31:56;;;;;;;44.20;26.40;;;9.70;99.90;;;;;;4984190;28;20484;-71
2023/02/10 11:34:24;;;;;;;41.53;25.00;;;9.70;99.90;;;;;;4991840;28;20436;-72
2023/02/10 11:36:51;;;;;;;39.80;25.47;;;9.70;99.90;;;;;;4991408;28;20792;-72
2023/02/10 11:39:34;;;;;;;50.07;26.40;;;9.40;99.90;;;;;;4998302;28;20425;-72
2023/02/10 11:42:22;;;;;;;45.27;24.17;;;9.30;99.90;;;;;;4998400;28;20451;-73
2023/02/10 11:45:00;;;;;;;51.30;25.60;;;9.30;99.90;;;;;;4997875;28;20557;-71
2023/02/10 11:47:28;;;;;;;41.87;24.50;;;9.40;99.90;;;;;;4998239;28;20495;-72
2023/02/10 11:49:55;;;;;;;38.63;23.87;;;9.60;99.90;;;;;;4990260;28;20535;-72
2023/02/10 11:52:23;;;;;;;42.13;24.00;;;9.60;99.90;;;;;;4998134;28;20477;-73
2023/02/10 11:54:51;;;;;;;40.07;22.47;;;9.70;99.90;;;;;;4997739;28;20946;-72
2023/02/10 12:00:34;;;;;;;36.90;22.80;;;9.70;99.90;;;;;;4992537;28;20476;-72
2023/02/10 12:03:07;;;;;;;33.20;21.27;;;9.80;99.90;;;;;;4998044;28;20456;-72
2023/02/10 12:06:08;;;;;;;35.47;20.17;;;9.40;99.90;;;;;;4997291;28;20968;-72
2023/02/10 12:08:46;;;;;;;41.67;22.60;;;9.30;99.90;;;;;;4997854;28;20443;-72
2023/02/10 12:11:56;;;;;;;34.20;21.40;;;9.20;99.90;;;;;;4997782;28;20449;-72
2023/02/10 12:14:43;;;;;;;36.03;21.97;;;9.10;99.90;;;;;;4993251;28;20438;-72
2023/02/10 12:17:24;;;;;;;32.20;21.20;;;9.10;99.90;;;;;;4992153;28;20428;-72
2023/02/10 12:20:11;;;;;;;34.43;21.53;;;8.80;99.90;;;;;;4997561;28;20506;-72
2023/02/10 12:23:24;;;;;;;39.17;21.70;;;8.80;99.90;;;;;;4997193;28;20450;-72
2023/02/10 12:26:02;;;;;;;30.53;17.53;;;8.80;99.90;;;;;;4997056;28;20964;-71
2023/02/10 12:28:27;;;;;;;35.00;17.40;;;8.90;99.90;;;;;;4998347;28;20436;-72
2023/02/10 12:31:30;;;;;;;37.93;19.43;;;8.80;99.90;;;;;;4997175;28;20460;-73
2023/02/10 12:34:19;;;;;;;34.13;17.30;;;8.90;99.90;;;;;;4997667;28;20278;-73
2023/02/10 12:36:51;;;;;;;31.50;17.40;;;8.70;99.90;;;;;;4997147;28;20427;-72
2023/02/10 12:39:22;;;;;;;27.90;18.50;;;8.60;99.90;;;;;;4997948;28;20425;-73
2023/02/10 12:42:00;;;;;;;28.10;16.60;;;8.50;99.90;;;;;;4997265;28;20439;-72
2023/02/10 12:44:49;;;;;;;29.23;17.53;;;8.40;99.90;;;;;;4997698;28;20835;-72
2023/02/10 12:47:43;;;;;;;29.23;16.10;;;8.30;99.90;;;;;;4992002;28;20428;-72
2023/02/10 12:50:27;;;;;;;30.67;17.83;;;8.40;99.90;;;;;;4995211;28;20425;-72
2023/02/10 12:53:19;;;;;;;29.57;17.60;;;8.30;99.90;;;;;;4994309;28;20478;-71
2023/02/10 12:56:13;;;;;;;29.57;17.53;;;8.30;99.90;;;;;;4994172;28;20513;-72
2023/02/10 12:58:44;;;;;;;27.30;17.27;;;8.40;99.90;;;;;;4994701;28;20480;-72
2023/02/10 13:01:22;;;;;;;28.97;17.73;;;8.30;99.90;;;;;;4995304;28;20505;-72
2023/02/10 13:03:51;;;;;;;29.77;18.10;;;8.20;99.90;;;;;;4993906;28;20846;-71
2023/02/10 13:06:30;;;;;;;28.13;18.03;;;8.00;99.90;;;;;;4994111;28;20506;-71
2023/02/10 13:09:02;;;;;;;32.53;17.50;;;7.90;99.90;;;;;;4994504;28;20557;-72
2023/02/10 13:11:58;;;;;;;25.93;16.50;;;7.90;99.90;;;;;;4994202;28;20836;-72
2023/02/10 13:14:28;;;;;;;26.70;16.87;;;7.90;99.90;;;;;;4989777;28;20432;-72
2023/02/10 13:16:56;;;;;;;36.13;20.40;;;7.80;99.90;;;;;;4993592;28;20483;-72
2023/02/10 13:19:27;;;;;;;27.30;17.33;;;7.90;99.90;;;;;;4994167;28;20483;-72
2023/02/10 13:22:08;;;;;;;36.47;18.00;;;7.90;99.90;;;;;;4993808;28;20535;-72
2023/02/10 13:25:10;;;;;;;28.47;17.83;;;8.00;99.90;;;;;;4993646;28;20498;-70
2023/02/10 13:28:12;;;;;;;28.17;17.47;;;8.00;99.90;;;;;;4990489;28;20443;-71
2023/02/10 13:30:40;;;;;;;26.10;17.23;;;8.00;99.90;;;;;;4993773;28;20510;-72
2023/02/10 13:33:29;;;;;;;23.50;16.60;;;7.90;99.90;;;;;;4993636;28;20465;-72
2023/02/10 13:35:55;;;;;;;32.00;18.13;;;7.80;99.90;;;;;;4993246;28;20419;-72
2023/02/10 13:38:23;;;;;;;32.33;17.60;;;7.60;99.90;;;;;;4990116;28;21022;-72
2023/02/10 13:40:50;;;;;;;27.33;17.67;;;7.60;99.90;;;;;;4991723;28;20986;-73
2023/02/10 13:43:32;;;;;;;34.37;18.70;;;7.40;99.90;;;;;;4992613;28;20481;-73
2023/02/10 13:45:59;;;;;;;27.70;17.00;;;7.40;99.90;;;;;;4991348;28;20664;-72
2023/02/10 13:48:32;;;;;;;29.10;19.00;;;7.30;99.90;;;;;;4992203;28;20519;-72
2023/02/10 13:51:07;;;;;;;29.20;18.20;;;7.20;99.90;;;;;;4992188;28;20448;-71
2023/02/10 13:53:35;;;;;;;27.37;17.83;;;7.20;99.90;;;;;;4992206;28;20485;-72
2023/02/10 13:56:23;;;;;;;34.13;18.93;;;7.20;99.90;;;;;;4984093;28;20447;-72
2023/02/10 13:58:54;;;;;;;32.27;18.53;;;7.10;99.90;;;;;;4990577;28;20475;-72
2023/02/10 14:01:41;;;;;;;34.03;18.73;;;7.10;99.90;;;;;;4991615;28;20450;-71
2023/02/10 14:04:37;;;;;;;33.80;18.40;;;7.00;99.90;;;;;;4985070;28;20455;-71
2023/02/10 14:07:14;;;;;;;38.67;19.80;;;7.00;99.90;;;;;;4984677;28;20449;-72
2023/02/10 14:09:40;;;;;;;30.57;18.80;;;7.00;99.90;;;;;;4992113;28;20438;-71
2023/02/10 14:12:24;;;;;;;29.67;18.80;;;6.80;99.90;;;;;;4992051;28;20544;-72
2023/02/10 14:14:50;;;;;;;32.47;19.93;;;6.70;99.90;;;;;;4991800;28;20209;-72
2023/02/10 14:17:32;;;;;;;27.43;17.47;;;6.60;99.90;;;;;;4992616;28;20477;-72